Time;durP1;ratioP1;P1;durP2;ratioP2;P2;SDS_P1;SDS_P2;PMS_P1;PMS_P2;Temp;Humidity;BMP_temperature;BMP_pressure;BME280_temperature;BME280_humidity;BME280_pressure;Samples;Min_cycle;Max_cycle;Signal;HPM_P1;HPM_P2
2023/08/03 00:00:29;;;;;;;;;;;;;;;25.36;47.64;99347.63;5009566;28;19917;-82
2023/08/03 00:02:54;;;;;;;;;;;;;;;25.36;47.70;99347.63;5019814;28;20019;-83
2023/08/03 00:05:20;;;;;;;;;;;;;;;25.39;47.49;99344.91;5026631;28;19924;-82
2023/08/03 00:07:49;;;;;;;;;;;;;;;25.42;47.60;99344.16;5018766;28;19994;-82
2023/08/03 00:10:15;;;;;;;;;;;;;;;25.46;47.34;99344.16;5005283;28;20020;-82
2023/08/03 00:12:40;;;;;;;;;;;;;;;25.48;47.17;99348.09;5018199;28;20000;-82
2023/08/03 00:15:06;;;;;;;;;;;;;;;25.43;47.31;99348.47;5024472;28;20372;-83
2023/08/03 00:17:32;;;;;;;;;;;;;;;25.43;47.36;99353.16;5023207;28;20432;-83
2023/08/03 00:19:57;;;;;;;;;;;;;;;25.42;47.33;99352.38;5018029;28;20459;-82
2023/08/03 00:22:22;;;;;;;;;;;;;;;25.43;47.26;99345.72;5026398;28;19918;-82
2023/08/03 00:24:51;;;;;;;;;;;;;;;25.44;47.27;99349.25;5017998;28;19927;-82
2023/08/03 00:27:16;;;;;;;;;;;;;;;25.46;47.01;99355.91;5021933;28;19940;-83
2023/08/03 00:29:41;;;;;;;;;;;;;;;25.44;47.15;99355.53;5034279;28;19917;-82
2023/08/03 00:32:07;;;;;;;;;;;;;;;25.45;47.14;99359.84;5024232;28;20578;-82
2023/08/03 00:34:32;;;;;;;;;;;;;;;25.47;46.91;99359.44;5030363;28;19925;-82
2023/08/03 00:36:58;;;;;;;;;;;;;;;25.45;46.94;99359.84;5026155;28;19917;-82
2023/08/03 00:39:23;;;;;;;;;;;;;;;25.38;47.06;99365.28;5022054;28;19925;-82
2023/08/03 00:41:49;;;;;;;;;;;;;;;25.37;46.87;99371.16;5026744;28;19921;-83
2023/08/03 00:44:14;;;;;;;;;;;;;;;25.32;46.95;99377.00;5029767;28;19917;-82
2023/08/03 00:46:40;;;;;;;;;;;;;;;25.32;46.89;99377.00;5024278;28;19963;-82
2023/08/03 00:49:05;;;;;;;;;;;;;;;25.29;47.00;99384.00;5032543;28;19928;-83
2023/08/03 00:51:31;;;;;;;;;;;;;;;25.29;47.09;99376.56;5024357;28;20493;-83
2023/08/03 00:53:56;;;;;;;;;;;;;;;25.32;47.03;99380.50;5024707;28;20056;-82
2023/08/03 00:56:21;;;;;;;;;;;;;;;25.32;47.04;99377.78;5019480;28;19917;-82
2023/08/03 00:58:47;;;;;;;;;;;;;;;25.35;46.94;99387.97;5024929;28;19921;-82
2023/08/03 01:01:12;;;;;;;;;;;;;;;25.34;47.03;99386.41;5022644;28;19921;-82
2023/08/03 01:03:37;;;;;;;;;;;;;;;25.30;47.11;99377.34;5030032;28;20025;-83
2023/08/03 01:06:03;;;;;;;;;;;;;;;25.27;47.08;99384.38;5026750;28;20438;-83
2023/08/03 01:08:28;;;;;;;;;;;;;;;25.25;47.06;99388.66;5027513;28;20046;-82
2023/08/03 01:10:54;;;;;;;;;;;;;;;25.26;47.11;99387.50;5026473;28;19922;-82
2023/08/03 01:13:20;;;;;;;;;;;;;;;25.30;47.03;99380.09;5024016;28;19929;-82
2023/08/03 01:15:45;;;;;;;;;;;;;;;25.32;47.02;99385.22;5028410;28;20324;-82
2023/08/03 01:18:11;;;;;;;;;;;;;;;25.34;46.89;99380.91;5019496;28;20284;-83
2023/08/03 01:20:37;;;;;;;;;;;;;;;25.36;46.98;99386.81;5022213;28;19917;-82
2023/08/03 01:23:06;;;;;;;;;;;;;;;25.35;46.75;99379.75;5023355;28;19917;-82
2023/08/03 01:25:32;;;;;;;;;;;;;;;25.34;46.96;99383.66;5025345;28;19921;-82
2023/08/03 01:27:58;;;;;;;;;;;;;;;25.36;46.83;99389.53;5029870;28;19921;-83
2023/08/03 01:30:23;;;;;;;;;;;;;;;25.36;46.93;99394.25;5020780;28;20439;-82
2023/08/03 01:32:48;;;;;;;;;;;;;;;25.36;46.85;99395.03;5022654;28;20616;-83
2023/08/03 01:35:14;;;;;;;;;;;;;;;25.34;46.86;99391.88;5027115;28;19924;-83
2023/08/03 01:37:39;;;;;;;;;;;;;;;25.32;46.87;99388.75;5011717;28;19921;-83
2023/08/03 01:40:05;;;;;;;;;;;;;;;25.30;46.83;99382.81;5024232;28;19921;-82
2023/08/03 01:42:30;;;;;;;;;;;;;;;25.31;46.90;99389.88;5029224;28;19924;-82
2023/08/03 01:44:56;;;;;;;;;;;;;;;25.34;46.86;99388.34;5010718;28;19917;-82
2023/08/03 01:47:21;;;;;;;;;;;;;;;25.33;46.76;99395.00;5022589;28;19918;-82
2023/08/03 01:49:46;;;;;;;;;;;;;;;25.30;46.82;99404.75;5011428;28;19917;-82
2023/08/03 01:52:12;;;;;;;;;;;;;;;25.26;46.78;99401.19;5020988;28;20087;-82
2023/08/03 01:54:37;;;;;;;;;;;;;;;25.24;46.93;99398.84;5027404;28;19928;-82
2023/08/03 01:57:02;;;;;;;;;;;;;;;25.23;46.95;99401.97;5020485;28;19924;-82
2023/08/03 01:59:28;;;;;;;;;;;;;;;25.20;47.09;99403.50;5003078;28;19928;-82
2023/08/03 02:01:53;;;;;;;;;;;;;;;25.24;47.03;99409.81;5025025;28;19928;-82
2023/08/03 02:04:18;;;;;;;;;;;;;;;25.27;46.99;99411.78;5028403;28;19921;-82
2023/08/03 02:06:46;;;;;;;;;;;;;;;25.24;46.82;99417.25;5025458;28;19921;-82
2023/08/03 02:09:11;;;;;;;;;;;;;;;25.23;47.23;99412.94;5026093;28;19925;-82
2023/08/03 02:11:36;;;;;;;;;;;;;;;25.21;47.03;99432.50;5029135;28;19925;-82
2023/08/03 02:14:02;;;;;;;;;;;;;;;25.21;47.14;99437.19;5024603;28;19922;-83
2023/08/03 02:16:28;;;;;;;;;;;;;;;25.23;46.93;99441.13;5030380;28;19917;-84
2023/08/03 02:18:53;;;;;;;;;;;;;;;25.21;47.03;99437.19;5028061;28;19921;-82
2023/08/03 02:21:18;;;;;;;;;;;;;;;25.19;47.02;99428.56;5012290;28;19948;-82
2023/08/03 02:23:44;;;;;;;;;;;;;;;25.20;47.19;99435.63;5010547;28;19924;-82
2023/08/03 02:26:09;;;;;;;;;;;;;;;25.20;47.16;99443.84;5024567;28;20650;-82
2023/08/03 02:28:35;;;;;;;;;;;;;;;25.18;47.29;99440.69;5026373;28;19917;-82
2023/08/03 02:31:00;;;;;;;;;;;;;;;25.20;47.21;99447.38;5007610;28;19921;-85
2023/08/03 02:33:26;;;;;;;;;;;;;;;25.10;47.19;99439.81;5025338;28;20031;-84
2023/08/03 02:35:51;;;;;;;;;;;;;;;25.06;47.32;99441.75;5025094;28;20307;-85
2023/08/03 02:38:17;;;;;;;;;;;;;;;25.04;47.33;99448.78;5022349;28;19925;-84
2023/08/03 02:40:42;;;;;;;;;;;;;;;25.02;47.41;99445.63;5021455;28;19917;-84
2023/08/03 02:43:07;;;;;;;;;;;;;;;25.03;47.36;99447.19;5027894;28;19917;-84
2023/08/03 02:45:33;;;;;;;;;;;;;;;24.97;47.78;99444.00;5003782;28;19929;-84
2023/08/03 02:47:58;;;;;;;;;;;;;;;24.96;47.54;99450.63;5027742;28;19917;-84
2023/08/03 02:50:23;;;;;;;;;;;;;;;24.94;47.48;99448.25;5019493;28;19967;-84
2023/08/03 02:52:49;;;;;;;;;;;;;;;24.90;47.55;99444.69;5023721;28;20016;-84
2023/08/03 02:55:14;;;;;;;;;;;;;;;24.89;47.91;99448.59;5029933;28;19966;-84
2023/08/03 02:57:40;;;;;;;;;;;;;;;24.89;47.57;99453.28;5021878;28;19924;-84
2023/08/03 03:00:05;;;;;;;;;;;;;;;24.86;47.67;99462.25;5025807;28;19917;-83
2023/08/03 03:02:31;;;;;;;;;;;;;;;24.80;47.58;99455.53;5022996;28;19963;-83
2023/08/03 03:04:56;;;;;;;;;;;;;;;24.75;47.70;99464.88;5025857;28;20377;-84
2023/08/03 03:07:21;;;;;;;;;;;;;;;24.73;47.68;99472.66;5021890;28;19917;-84
2023/08/03 03:09:47;;;;;;;;;;;;;;;24.67;47.63;99468.69;5019107;28;19943;-84
2023/08/03 03:12:12;;;;;;;;;;;;;;;24.68;47.54;99481.22;5023976;28;19920;-83
2023/08/03 03:14:37;;;;;;;;;;;;;;;24.64;47.63;99469.44;5020894;28;20369;-84
2023/08/03 03:17:03;;;;;;;;;;;;;;;24.59;47.61;99477.97;5019905;28;19956;-83
2023/08/03 03:19:28;;;;;;;;;;;;;;;24.55;47.58;99474.41;5025787;28;19925;-83
2023/08/03 03:21:54;;;;;;;;;;;;;;;24.49;47.75;99473.16;5019051;28;19921;-83
2023/08/03 03:24:19;;;;;;;;;;;;;;;24.46;47.63;99479.38;5023714;28;19948;-84
2023/08/03 03:26:44;;;;;;;;;;;;;;;24.41;47.75;99475.78;5020088;28;19921;-83
2023/08/03 03:29:10;;;;;;;;;;;;;;;24.39;47.89;99480.84;5028788;28;19940;-83
2023/08/03 03:31:35;;;;;;;;;;;;;;;24.40;47.93;99484.38;5019960;28;19936;-83
2023/08/03 03:34:00;;;;;;;;;;;;;;;24.38;48.02;99490.22;5019947;28;19922;-83
2023/08/03 03:36:26;;;;;;;;;;;;;;;24.36;47.88;99498.03;5020554;28;19921;-82
2023/08/03 03:38:51;;;;;;;;;;;;;;;24.29;48.07;99494.41;5017722;28;19921;-83
2023/08/03 03:41:16;;;;;;;;;;;;;;;24.24;48.12;99495.50;5018798;28;20385;-83
2023/08/03 03:43:41;;;;;;;;;;;;;;;24.19;48.22;99501.28;5022123;28;19921;-84
2023/08/03 03:46:07;;;;;;;;;;;;;;;24.13;48.59;99497.28;5021810;28;19940;-82
2023/08/03 03:48:33;;;;;;;;;;;;;;;24.02;48.59;99488.13;5021621;28;20405;-81
2023/08/03 03:50:58;;;;;;;;;;;;;;;23.97;48.60;99494.72;5022054;28;19921;-82
2023/08/03 03:53:23;;;;;;;;;;;;;;;23.96;48.81;99495.06;5021877;28;19932;-81
2023/08/03 03:55:48;;;;;;;;;;;;;;;23.96;48.92;99495.06;5020881;28;19992;-82
2023/08/03 03:58:14;;;;;;;;;;;;;;;23.98;48.65;99509.19;5024742;28;20394;-81
2023/08/03 04:00:43;;;;;;;;;;;;;;;23.95;48.95;99498.97;5021906;28;19917;-84
2023/08/03 04:03:08;;;;;;;;;;;;;;;23.95;48.99;99501.72;5016927;28;19953;-84
2023/08/03 04:05:34;;;;;;;;;;;;;;;23.98;48.91;99500.97;5023156;28;20011;-81
2023/08/03 04:08:00;;;;;;;;;;;;;;;24.00;48.85;99504.91;5017909;28;20535;-81
2023/08/03 04:10:25;;;;;;;;;;;;;;;24.03;48.88;99501.44;5017693;28;20004;-81
2023/08/03 04:12:51;;;;;;;;;;;;;;;24.05;48.68;99501.06;5009788;28;19921;-82
2023/08/03 04:15:16;;;;;;;;;;;;;;;24.00;49.02;99501.38;5021190;28;19921;-81
2023/08/03 04:17:45;;;;;;;;;;;;;;;24.01;49.02;99498.28;5021647;28;19921;-81
2023/08/03 04:20:10;;;;;;;;;;;;;;;24.00;48.85;99515.84;5025225;28;19924;-81
2023/08/03 04:22:36;;;;;;;;;;;;;;;24.04;48.81;99519.44;5022504;28;20847;-81
2023/08/03 04:25:01;;;;;;;;;;;;;;;24.04;49.01;99518.63;5022536;28;20407;-81
2023/08/03 04:27:26;;;;;;;;;;;;;;;24.05;49.02;99520.22;5019231;28;19922;-81
2023/08/03 04:29:52;;;;;;;;;;;;;;;24.08;49.14;99522.25;5021227;28;20004;-81
2023/08/03 04:32:17;;;;;;;;;;;;;;;24.13;49.00;99516.44;5024559;28;20043;-81
2023/08/03 04:34:42;;;;;;;;;;;;;;;24.15;49.04;99519.59;5019947;28;19956;-82
2023/08/03 04:37:07;;;;;;;;;;;;;;;24.14;49.00;99517.22;5020362;28;19924;-81
2023/08/03 04:39:33;;;;;;;;;;;;;;;24.09;49.05;99504.66;5016308;28;19921;-80
2023/08/03 04:41:58;;;;;;;;;;;;;;;24.08;48.90;99497.63;5023857;28;19990;-81
2023/08/03 04:44:23;;;;;;;;;;;;;;;24.06;48.99;99503.47;5018796;28;20544;-81
2023/08/03 04:46:48;;;;;;;;;;;;;;;24.09;49.29;99505.44;5018644;28;19917;-81
2023/08/03 04:49:14;;;;;;;;;;;;;;;24.16;49.19;99498.50;5020378;28;19986;-81
2023/08/03 04:51:39;;;;;;;;;;;;;;;24.20;49.18;99502.84;5022232;28;20419;-81
2023/08/03 04:54:04;;;;;;;;;;;;;;;24.27;49.19;99500.22;5015308;28;20385;-81
2023/08/03 04:56:30;;;;;;;;;;;;;;;24.33;49.18;99507.00;5015079;28;20000;-81
2023/08/03 04:58:55;;;;;;;;;;;;;;;24.30;49.27;99505.00;5019530;28;19923;-81
2023/08/03 05:01:20;;;;;;;;;;;;;;;24.32;49.10;99513.63;5027014;28;19928;-81
2023/08/03 05:03:46;;;;;;;;;;;;;;;24.25;49.65;99502.56;5015303;28;20004;-81
2023/08/03 05:06:11;;;;;;;;;;;;;;;24.33;49.29;99500.72;5013029;28;20539;-82
2023/08/03 05:08:37;;;;;;;;;;;;;;;24.36;49.40;99498.03;5021766;28;19925;-81
2023/08/03 05:11:02;;;;;;;;;;;;;;;24.38;49.34;99498.44;5025644;28;19917;-81
2023/08/03 05:13:27;;;;;;;;;;;;;;;24.41;49.34;99505.91;5025422;28;20009;-82
2023/08/03 05:15:53;;;;;;;;;;;;;;;24.41;49.12;99516.84;5026114;28;20458;-81
2023/08/03 05:18:18;;;;;;;;;;;;;;;24.43;49.40;99513.78;5026552;28;19921;-81
2023/08/03 05:20:43;;;;;;;;;;;;;;;24.52;49.48;99516.22;5022829;28;19917;-81
2023/08/03 05:23:09;;;;;;;;;;;;;;;24.60;49.22;99513.22;5032384;28;19917;-83
2023/08/03 05:25:34;;;;;;;;;;;;;;;24.68;49.04;99505.88;5022935;28;19918;-83
2023/08/03 05:28:00;;;;;;;;;;;;;;;24.73;49.13;99511.00;5028321;28;20381;-83
2023/08/03 05:30:25;;;;;;;;;;;;;;;24.77;49.09;99506.38;5023165;28;19921;-83
2023/08/03 05:32:51;;;;;;;;;;;;;;;24.88;48.95;99504.53;5022675;28;20432;-82
2023/08/03 05:35:16;;;;;;;;;;;;;;;24.96;48.85;99508.16;5029578;28;19957;-82
2023/08/03 05:37:42;;;;;;;;;;;;;;;25.12;48.63;99519.72;5023909;28;19940;-83
2023/08/03 05:40:07;;;;;;;;;;;;;;;25.20;48.36;99515.91;5029177;28;20024;-82
2023/08/03 05:42:40;;;;;;;;;;;;;;;25.21;48.36;99508.47;5021521;28;20255;-82
2023/08/03 05:45:09;;;;;;;;;;;;;;;25.32;48.13;99509.38;5025025;28;19918;-82
2023/08/03 05:47:36;;;;;;;;;;;;;;;25.36;48.03;99510.19;5020742;28;19971;-82
2023/08/03 05:50:04;;;;;;;;;;;;;;;25.42;47.91;99514.16;5028362;28;19924;-83
2023/08/03 05:52:29;;;;;;;;;;;;;;;25.49;47.83;99505.97;5019626;28;19967;-82
2023/08/03 05:54:54;;;;;;;;;;;;;;;25.63;47.57;99513.53;5024702;28;19948;-82
2023/08/03 05:57:19;;;;;;;;;;;;;;;25.65;47.47;99504.94;5028420;28;19921;-82
2023/08/03 05:59:45;;;;;;;;;;;;;;;25.63;47.31;99512.75;5028753;28;19964;-82
2023/08/03 06:02:17;;;;;;;;;;;;;;;25.60;47.04;99506.06;5019138;28;19987;-81
2023/08/03 06:04:43;;;;;;;;;;;;;;;25.61;47.08;99511.19;5021865;28;19917;-83
2023/08/03 06:07:11;;;;;;;;;;;;;;;25.62;46.85;99520.19;5018900;28;20311;-81
2023/08/03 06:09:36;;;;;;;;;;;;;;;25.58;46.83;99514.69;5027849;28;19980;-82
2023/08/03 06:12:03;;;;;;;;;;;;;;;25.58;46.71;99516.66;5025138;28;19917;-81
2023/08/03 06:14:29;;;;;;;;;;;;;;;25.67;46.63;99530.03;5023482;28;19925;-80
2023/08/03 06:16:56;;;;;;;;;;;;;;;25.66;46.27;99523.75;5024887;28;19987;-82
2023/08/03 06:19:22;;;;;;;;;;;;;;;25.67;46.28;99524.53;5027370;28;19917;-81
2023/08/03 06:21:47;;;;;;;;;;;;;;;25.69;46.34;99523.06;5026271;28;19928;-81
2023/08/03 06:24:13;;;;;;;;;;;;;;;25.69;46.39;99525.00;5021564;28;19979;-81
2023/08/03 06:26:39;;;;;;;;;;;;;;;25.74;46.31;99530.91;5022131;28;19964;-81
2023/08/03 06:29:05;;;;;;;;;;;;;;;25.81;46.24;99521.94;5022462;28;19921;-81
2023/08/03 06:31:40;;;;;;;;;;;;;;;25.89;45.93;99515.38;5018701;28;20007;-82
2023/08/03 06:34:05;;;;;;;;;;;;;;;25.84;45.58;99519.22;5020365;28;19940;-82
2023/08/03 06:36:31;;;;;;;;;;;;;;;25.84;45.71;99530.19;5010047;28;19917;-82
2023/08/03 06:38:57;;;;;;;;;;;;;;;25.87;45.78;99521.25;5005532;28;19917;-81
2023/08/03 06:41:23;;;;;;;;;;;;;;;25.99;45.77;99530.31;5018906;28;19921;-81
2023/08/03 06:43:49;;;;;;;;;;;;;;;26.19;45.62;99532.41;5021044;28;20411;-82
2023/08/03 06:46:14;;;;;;;;;;;;;;;26.45;45.41;99522.41;5017244;28;19925;-82
2023/08/03 06:48:39;;;;;;;;;;;;;;;26.60;44.71;99524.06;5025722;28;20415;-81
2023/08/03 06:51:05;;;;;;;;;;;;;;;26.65;44.34;99529.19;5009838;28;19921;-82
2023/08/03 06:53:31;;;;;;;;;;;;;;;26.60;43.99;99526.81;5017847;28;20094;-82
2023/08/03 06:55:56;;;;;;;;;;;;;;;26.56;44.28;99531.47;5021951;28;19929;-82
2023/08/03 06:58:21;;;;;;;;;;;;;;;26.56;44.05;99526.00;5019954;28;20004;-81
2023/08/03 07:00:47;;;;;;;;;;;;;;;26.58;44.01;99531.13;5026249;28;20004;-81
2023/08/03 07:03:13;;;;;;;;;;;;;;;26.68;44.08;99538.63;5024159;28;19978;-83
2023/08/03 07:05:38;;;;;;;;;;;;;;;26.68;42.98;99542.16;5025445;28;19924;-83
2023/08/03 07:08:04;;;;;;;;;;;;;;;26.58;42.81;99526.41;5005675;28;20389;-83
2023/08/03 07:10:29;;;;;;;;;;;;;;;26.44;43.29;99537.31;5021989;28;20353;-82
2023/08/03 07:12:54;;;;;;;;;;;;;;;26.35;43.37;99542.34;5021013;28;19929;-82
2023/08/03 07:15:20;;;;;;;;;;;;;;;26.34;43.54;99559.97;5028109;28;19917;-83
2023/08/03 07:17:46;;;;;;;;;;;;;;;26.16;44.24;99557.09;5022903;28;20026;-83
2023/08/03 07:20:12;;;;;;;;;;;;;;;25.97;44.69;99549.13;5020963;28;19921;-82
2023/08/03 07:22:37;;;;;;;;;;;;;;;25.91;45.00;99545.94;5019605;28;19917;-82
2023/08/03 07:25:03;;;;;;;;;;;;;;;25.99;45.02;99546.78;5016167;28;19917;-82
2023/08/03 07:27:28;;;;;;;;;;;;;;;26.02;44.96;99543.28;5014965;28;19924;-83
2023/08/03 07:29:54;;;;;;;;;;;;;;;26.02;44.96;99552.28;5027008;28;19922;-82
2023/08/03 07:32:19;;;;;;;;;;;;;;;26.06;44.87;99550.38;5025049;28;20459;-80
2023/08/03 07:34:44;;;;;;;;;;;;;;;26.09;44.67;99548.84;5021840;28;20389;-82
2023/08/03 07:37:09;;;;;;;;;;;;;;;26.13;44.71;99550.44;5020025;28;19917;-82
2023/08/03 07:39:35;;;;;;;;;;;;;;;26.16;44.52;99551.63;5019653;28;20404;-82
2023/08/03 07:42:00;;;;;;;;;;;;;;;26.31;44.39;99547.81;5016081;28;20281;-80
2023/08/03 07:44:26;;;;;;;;;;;;;;;26.48;44.03;99560.09;5013735;28;19933;-80
2023/08/03 07:46:51;;;;;;;;;;;;;;;26.63;43.04;99541.72;5019935;28;20663;-80
2023/08/03 07:49:16;;;;;;;;;;;;;;;26.73;42.71;99549.22;5023176;28;20010;-82
2023/08/03 07:51:43;;;;;;;;;;;;;;;26.83;42.67;99561.44;5019278;28;19996;-82
2023/08/03 07:54:08;;;;;;;;;;;;;;;26.91;42.60;99555.59;5026637;28;20008;-82
2023/08/03 07:56:33;;;;;;;;;;;;;;;26.89;41.29;99562.66;5021794;28;20083;-82
2023/08/03 07:59:00;;;;;;;;;;;;;;;26.89;41.67;99590.13;5021688;28;19932;-81
2023/08/03 08:01:26;;;;;;;;;;;;;;;26.69;41.60;99564.91;5018820;28;20004;-81
2023/08/03 08:03:51;;;;;;;;;;;;;;;26.60;42.18;99554.28;5027875;28;20012;-82
2023/08/03 08:06:17;;;;;;;;;;;;;;;26.62;42.13;99562.94;5023902;28;19967;-82
2023/08/03 08:08:43;;;;;;;;;;;;;;;26.51;42.27;99575.81;5025059;28;19918;-84
2023/08/03 08:11:09;;;;;;;;;;;;;;;26.41;42.55;99576.53;5024242;28;20402;-83
2023/08/03 08:13:34;;;;;;;;;;;;;;;26.23;42.87;99561.88;5027556;28;20511;-82
2023/08/03 08:16:04;;;;;;;;;;;;;;;26.20;43.18;99569.69;5024978;28;19925;-81
2023/08/03 08:18:30;;;;;;;;;;;;;;;26.23;43.25;99575.59;5025415;28;19936;-80
2023/08/03 08:20:56;;;;;;;;;;;;;;;26.33;43.30;99583.91;5017941;28;19924;-81
2023/08/03 08:23:22;;;;;;;;;;;;;;;26.28;43.08;99594.47;5027782;28;20304;-83
2023/08/03 08:25:47;;;;;;;;;;;;;;;26.17;43.47;99581.44;5025992;28;19920;-81
2023/08/03 08:28:12;;;;;;;;;;;;;;;26.04;43.67;99593.91;5025811;28;19917;-81
2023/08/03 08:30:37;;;;;;;;;;;;;;;25.99;44.33;99594.22;5015314;28;20400;-81
2023/08/03 08:33:03;;;;;;;;;;;;;;;26.02;44.04;99606.41;5023550;28;19921;-82
2023/08/03 08:35:28;;;;;;;;;;;;;;;25.86;44.45;99603.94;5006392;28;19924;-81
2023/08/03 08:37:53;;;;;;;;;;;;;;;25.73;44.76;99606.16;5027305;28;20408;-83
2023/08/03 08:40:19;;;;;;;;;;;;;;;25.54;45.50;99598.88;5022687;28;19918;-84
2023/08/03 08:42:51;;;;;;;;;;;;;;;25.42;45.65;99603.84;5024111;28;21719;-84
2023/08/03 08:45:16;;;;;;;;;;;;;;;25.38;46.18;99600.28;5022210;28;19917;-87
2023/08/03 08:47:41;;;;;;;;;;;;;;;25.53;45.78;99596.53;5027044;28;19917;-84
2023/08/03 08:50:07;;;;;;;;;;;;;;;25.66;45.68;99597.81;5023840;28;19917;-83
2023/08/03 08:52:32;;;;;;;;;;;;;;;25.76;45.70;99599.13;5030233;28;19928;-83
2023/08/03 08:55:14;;;;;;;;;;;;;;;25.90;45.85;99604.75;5008293;28;19924;-83
2023/08/03 08:57:39;;;;;;;;;;;;;;;26.05;45.55;99602.91;5021380;28;19917;-83
2023/08/03 09:00:06;;;;;;;;;;;;;;;26.15;45.44;99605.72;5026842;28;20430;-84
2023/08/03 09:02:31;;;;;;;;;;;;;;;26.24;45.54;99604.63;5027808;28;19924;-84
2023/08/03 09:04:57;;;;;;;;;;;;;;;26.35;45.52;99608.25;5022999;28;20381;-83
2023/08/03 09:07:22;;;;;;;;;;;;;;;26.48;45.38;99602.09;5007098;28;20400;-83
2023/08/03 09:09:48;;;;;;;;;;;;;;;26.60;45.48;99602.94;5007051;28;19928;-83
2023/08/03 09:12:25;;;;;;;;;;;;;;;26.71;45.05;99599.06;5020569;28;20415;-83
2023/08/03 09:14:51;;;;;;;;;;;;;;;26.80;45.02;99602.28;5028840;28;20415;-83
2023/08/03 09:17:17;;;;;;;;;;;;;;;26.89;44.80;99599.16;5023242;28;19921;-82
2023/08/03 09:19:43;;;;;;;;;;;;;;;26.94;44.18;99600.78;5021669;28;19924;-84
2023/08/03 09:22:09;;;;;;;;;;;;;;;26.96;44.23;99620.41;5020978;28;20001;-83
2023/08/03 09:24:34;;;;;;;;;;;;;;;26.97;43.63;99632.97;5025554;28;20401;-83
2023/08/03 09:26:59;;;;;;;;;;;;;;;26.86;43.76;99623.88;5022488;28;20408;-82
2023/08/03 09:29:30;;;;;;;;;;;;;;;26.74;43.75;99624.97;5028865;28;19952;-83
2023/08/03 09:32:02;;;;;;;;;;;;;;;26.68;43.92;99621.81;5024029;28;20281;-84
2023/08/03 09:34:34;;;;;;;;;;;;;;;26.68;43.60;99621.03;5023164;28;19932;-82
2023/08/03 09:36:59;;;;;;;;;;;;;;;26.69;43.65;99623.41;5021358;28;20003;-83
2023/08/03 09:39:29;;;;;;;;;;;;;;;26.82;43.74;99604.63;5024057;28;20058;-83
2023/08/03 09:41:55;;;;;;;;;;;;;;;27.08;43.37;99617.34;5021481;28;20308;-82
2023/08/03 09:44:20;;;;;;;;;;;;;;;27.31;43.04;99623.34;5021493;28;20561;-83
2023/08/03 09:46:49;;;;;;;;;;;;;;;27.56;42.66;99626.16;5032846;28;19925;-82
2023/08/03 09:49:14;;;;;;;;;;;;;;;27.79;42.56;99623.06;5024238;28;19932;-82
2023/08/03 09:51:41;;;;;;;;;;;;;;;28.02;41.98;99619.97;5025834;28;19917;-82
2023/08/03 09:54:12;;;;;;;;;;;;;;;28.01;40.96;99612.88;5026330;28;19933;-83
2023/08/03 09:56:41;;;;;;;;;;;;;;;28.01;41.33;99623.91;5022217;28;20000;-84
2023/08/03 09:59:08;;;;;;;;;;;;;;;27.90;41.21;99614.84;5023687;28;20377;-82
2023/08/03 10:01:36;;;;;;;;;;;;;;;27.79;41.36;99617.56;5024969;28;20004;-82
2023/08/03 10:04:03;;;;;;;;;;;;;;;27.76;40.82;99615.59;5024294;28;19925;-83
2023/08/03 10:06:33;;;;;;;;;;;;;;;27.82;41.20;99622.28;5026024;28;19925;-82
2023/08/03 10:09:06;;;;;;;;;;;;;;;27.86;40.05;99623.09;5027905;28;19921;-83
2023/08/03 10:11:53;;;;;;;;;;;;;;;27.81;40.16;99620.72;5024434;28;19924;-83
2023/08/03 10:14:22;;;;;;;;;;;;;;;28.03;40.36;99612.47;5026312;28;19925;-83
2023/08/03 10:16:48;;;;;;;;;;;;;;;28.33;40.50;99612.88;5024031;28;19925;-82
2023/08/03 10:19:15;;;;;;;;;;;;;;;28.59;39.97;99614.44;5023016;28;19968;-83
2023/08/03 10:21:41;;;;;;;;;;;;;;;28.90;39.48;99615.53;5022421;28;20338;-82
2023/08/03 10:24:09;;;;;;;;;;;;;;;29.23;38.71;99608.69;5025184;28;19920;-82
2023/08/03 10:26:34;;;;;;;;;;;;;;;29.39;37.79;99602.72;5017606;28;19921;-82
2023/08/03 10:28:59;;;;;;;;;;;;;;;29.46;38.40;99613.75;5025365;28;19921;-83
2023/08/03 10:31:25;;;;;;;;;;;;;;;29.57;37.73;99602.63;5019804;28;19921;-82
2023/08/03 10:33:53;;;;;;;;;;;;;;;29.76;37.78;99600.13;5020918;28;19936;-84
2023/08/03 10:36:28;;;;;;;;;;;;;;;29.94;37.36;99586.19;5016759;28;19921;-81
2023/08/03 10:38:54;;;;;;;;;;;;;;;30.07;36.10;99578.22;5023478;28;19924;-83
2023/08/03 10:41:20;;;;;;;;;;;;;;;30.24;36.06;99571.75;5021618;28;19921;-81
2023/08/03 10:44:05;;;;;;;;;;;;;;;30.30;35.56;99589.44;5020353;28;19968;-81
2023/08/03 10:46:40;;;;;;;;;;;;;;;30.47;35.25;99598.75;5023893;28;19921;-81
2023/08/03 10:49:18;;;;;;;;;;;;;;;30.59;34.83;99589.19;5005402;28;20001;-82
2023/08/03 10:51:47;;;;;;;;;;;;;;;30.64;34.72;99592.28;5021109;28;19918;-83
2023/08/03 10:54:13;;;;;;;;;;;;;;;30.63;33.86;99620.34;5019365;28;19933;-81
2023/08/03 10:56:38;;;;;;;;;;;;;;;30.53;32.68;99599.13;5024371;28;19981;-82
2023/08/03 10:59:04;;;;;;;;;;;;;;;30.62;33.59;99602.19;5020923;28;20286;-81
2023/08/03 11:01:29;;;;;;;;;;;;;;;30.62;33.41;99616.81;5027797;28;19917;-82
2023/08/03 11:03:55;;;;;;;;;;;;;;;30.61;33.81;99606.13;5020905;28;19921;-81
2023/08/03 11:06:21;;;;;;;;;;;;;;;30.63;33.72;99614.81;5017497;28;20389;-83
2023/08/03 11:08:46;;;;;;;;;;;;;;;30.62;33.81;99643.66;5017785;28;19932;-83
2023/08/03 11:11:12;;;;;;;;;;;;;;;30.43;33.69;99605.53;5016649;28;20354;-81
2023/08/03 11:13:39;;;;;;;;;;;;;;;30.29;34.19;99617.50;5020394;28;20372;-83
2023/08/03 11:16:04;;;;;;;;;;;;;;;30.25;34.50;99612.00;5016160;28;19921;-81
2023/08/03 11:18:29;;;;;;;;;;;;;;;30.30;34.68;99606.03;5017781;28;20000;-81
2023/08/03 11:20:55;;;;;;;;;;;;;;;30.08;34.49;99613.72;5016890;28;19959;-82
2023/08/03 11:23:20;;;;;;;;;;;;;;;29.82;34.88;99619.06;5025589;28;19921;-81
2023/08/03 11:25:46;;;;;;;;;;;;;;;29.58;34.98;99629.03;5019700;28;19968;-83
2023/08/03 11:28:18;;;;;;;;;;;;;;;29.36;35.78;99623.63;5017120;28;19932;-82
2023/08/03 11:30:44;;;;;;;;;;;;;;;29.38;36.24;99628.72;5018746;28;19928;-83
2023/08/03 11:33:12;;;;;;;;;;;;;;;29.47;35.99;99626.38;5021800;28;19925;-82
2023/08/03 11:35:37;;;;;;;;;;;;;;;29.53;35.63;99629.47;5019373;28;19987;-81
2023/08/03 11:38:05;;;;;;;;;;;;;;;29.49;36.07;99632.25;5022629;28;19922;-83
2023/08/03 11:40:31;;;;;;;;;;;;;;;29.40;36.36;99642.91;5021493;28;20036;-81
2023/08/03 11:42:56;;;;;;;;;;;;;;;29.37;36.44;99663.03;5023231;28;20443;-82
2023/08/03 11:45:21;;;;;;;;;;;;;;;29.18;36.68;99651.28;5019692;28;19921;-82
2023/08/03 11:47:48;;;;;;;;;;;;;;;29.33;36.72;99640.19;5021349;28;20340;-83
2023/08/03 11:50:15;;;;;;;;;;;;;;;29.51;36.81;99634.63;4998562;28;19924;-82
2023/08/03 11:52:40;;;;;;;;;;;;;;;29.73;36.22;99647.09;5022059;28;19917;-84
2023/08/03 11:55:06;;;;;;;;;;;;;;;29.89;36.16;99647.38;5017963;28;19917;-83
2023/08/03 12:00:16;;;;;;;;;;;;;;;30.04;35.83;99653.63;5015516;28;20414;-81
2023/08/03 12:02:45;;;;;;;;;;;;;;;30.01;36.06;99652.44;5024314;28;19917;-81
2023/08/03 12:05:11;;;;;;;;;;;;;;;29.93;35.80;99673.00;5024963;28;19917;-82
2023/08/03 12:07:36;;;;;;;;;;;;;;;29.79;36.26;99682.16;5016602;28;19918;-82
2023/08/03 12:10:10;;;;;;;;;;;;;;;29.44;37.05;99676.78;5020450;28;19939;-81
2023/08/03 12:12:35;;;;;;;;;;;;;;;29.19;37.69;99713.53;5021549;28;19923;-81
2023/08/03 12:15:00;;;;;;;;;;;;;;;28.80;38.85;99740.38;5020559;28;19922;-81
2023/08/03 12:17:25;;;;;;;;;;;;;;;28.29;40.05;99760.84;5022965;28;19920;-82
2023/08/03 12:19:51;;;;;;;;;;;;;;;27.95;40.55;99752.88;5020328;28;19925;-86
2023/08/03 12:22:16;;;;;;;;;;;;;;;27.67;41.10;99739.03;5020705;28;19962;-83
2023/08/03 12:24:41;;;;;;;;;;;;;;;27.45;42.26;99756.56;5027697;28;19917;-84
2023/08/03 12:27:07;;;;;;;;;;;;;;;27.23;42.24;99737.22;5023889;28;20523;-82
2023/08/03 12:29:32;;;;;;;;;;;;;;;27.06;43.13;99729.66;5031142;28;19917;-82
2023/08/03 12:31:57;;;;;;;;;;;;;;;27.20;43.14;99721.50;5027011;28;20543;-81
2023/08/03 12:34:23;;;;;;;;;;;;;;;27.48;42.28;99717.31;5028781;28;19933;-81
2023/08/03 12:36:48;;;;;;;;;;;;;;;27.70;42.57;99707.97;5031731;28;19921;-81
2023/08/03 12:39:13;;;;;;;;;;;;;;;27.84;42.38;99712.75;5027793;28;20565;-81
2023/08/03 12:41:39;;;;;;;;;;;;;;;28.07;42.61;99709.63;5027797;28;19917;-82
2023/08/03 12:44:04;;;;;;;;;;;;;;;28.31;42.68;99697.09;5026312;28;20458;-81